Time;durP1;ratioP1;P1;durP2;ratioP2;P2;SDS_P1;SDS_P2;PMS_P1;PMS_P2;Temp;Humidity;BMP_temperature;BMP_pressure;BME280_temperature;BME280_humidity;BME280_pressure;Samples;Min_cycle;Max_cycle;Signal;HPM_P1;HPM_P2
2022/10/25 00:00:18;;;;;;;0.25;0.25;;;22.80;59.10;;;;;;6224481;28;20035;-58
2022/10/25 00:03:20;;;;;;;0.45;0.20;;;22.40;59.00;;;;;;6230929;28;20049;-58
2022/10/25 00:06:22;;;;;;;;;;;23.00;59.30;;;;;;6228673;28;20487;-57
2022/10/25 00:09:24;;;;;;;0.43;0.15;;;23.40;59.80;;;;;;6207320;28;19928;-54
2022/10/25 00:12:25;;;;;;;;;;;23.00;59.40;;;;;;6230333;28;20986;-57
2022/10/25 00:15:27;;;;;;;0.20;0.10;;;23.00;59.70;;;;;;6232887;28;20704;-56
2022/10/25 00:18:28;;;;;;;0.47;0.10;;;23.00;59.30;;;;;;6227922;28;20846;-58
2022/10/25 00:21:30;;;;;;;;;;;23.00;59.50;;;;;;6229361;28;20448;-56
2022/10/25 00:24:31;;;;;;;0.38;0.20;;;22.90;59.60;;;;;;6234457;28;19924;-55
2022/10/25 00:27:34;;;;;;;0.88;0.35;;;22.50;59.20;;;;;;6209735;28;20243;-54
2022/10/25 00:30:35;;;;;;;0.60;0.30;;;22.50;59.00;;;;;;6211387;28;20119;-57
2022/10/25 00:33:38;;;;;;;0.22;0.20;;;22.90;59.50;;;;;;6232535;28;20103;-56
2022/10/25 00:36:40;;;;;;;0.40;0.20;;;22.90;59.20;;;;;;6237718;23;20052;-54
2022/10/25 00:39:42;;;;;;;0.40;0.20;;;22.90;59.30;;;;;;6247523;28;20475;-54
2022/10/25 00:42:43;;;;;;;0.22;0.20;;;23.00;59.50;;;;;;6253947;28;20048;-58
2022/10/25 00:45:45;;;;;;;0.40;0.20;;;23.00;59.50;;;;;;6257890;28;20057;-58
2022/10/25 00:48:51;;;;;;;;;;;22.90;59.30;;;;;;6254576;28;20041;-57
2022/10/25 00:51:57;;;;;;;0.57;0.20;;;22.70;59.40;;;;;;6255171;28;19924;-58
2022/10/25 00:55:00;;;;;;;0.77;0.30;;;23.10;59.40;;;;;;6257242;28;20049;-54
2022/10/25 00:58:05;;;;;;;0.50;0.20;;;22.80;59.20;;;;;;6250977;28;20310;-53
2022/10/25 01:01:08;;;;;;;0.20;0.10;;;22.80;59.20;;;;;;6248222;28;20594;-58
2022/10/25 01:04:14;;;;;;;0.60;0.22;;;22.80;59.20;;;;;;6256500;28;20595;-58
2022/10/25 01:07:19;;;;;;;0.17;0.10;;;23.30;59.20;;;;;;6256898;28;20167;-57
2022/10/25 01:10:21;;;;;;;0.10;0.10;;;22.80;59.30;;;;;;6251767;28;20151;-54
2022/10/25 01:13:22;;;;;;;;;;;22.90;59.40;;;;;;6255507;28;20777;-56
2022/10/25 01:16:31;;;;;;;0.15;0.10;;;22.30;59.30;;;;;;6254428;28;20599;-55
2022/10/25 01:19:51;;;;;;;0.40;0.10;;;22.90;59.20;;;;;;6250403;28;20177;-54
2022/10/25 01:23:03;;;;;;;0.10;0.10;;;22.50;59.10;;;;;;6254118;28;20160;-55
2022/10/25 01:26:21;;;;;;;0.17;0.10;;;22.40;59.00;;;;;;6255579;28;20036;-55
2022/10/25 01:29:36;;;;;;;0.43;0.20;;;22.90;59.20;;;;;;6255150;28;20513;-58
2022/10/25 01:32:46;;;;;;;0.45;0.20;;;23.00;59.20;;;;;;6248135;28;20216;-55
2022/10/25 01:35:56;;;;;;;0.15;0.10;;;23.20;59.30;;;;;;6251870;28;20051;-58
2022/10/25 01:39:06;;;;;;;0.28;0.20;;;22.60;59.00;;;;;;6260910;28;20043;-55
2022/10/25 01:42:15;;;;;;;0.20;0.20;;;22.70;59.10;;;;;;6258495;28;20554;-55
2022/10/25 01:45:23;;;;;;;0.57;0.20;;;22.80;59.20;;;;;;6259889;28;20544;-55
2022/10/25 01:48:31;;;;;;;0.20;0.10;;;22.90;59.20;;;;;;6258975;28;20032;-56
2022/10/25 01:51:35;;;;;;;0.30;0.20;;;22.60;59.10;;;;;;6257351;28;20238;-57
2022/10/25 01:54:37;;;;;;;0.68;0.20;;;22.80;59.20;;;;;;6252655;28;20464;-58
2022/10/25 01:57:57;;;;;;;0.32;0.20;;;22.60;59.40;;;;;;6256708;28;20091;-55
2022/10/25 02:01:09;;;;;;;0.20;0.10;;;22.80;59.30;;;;;;6257220;28;20055;-56
2022/10/25 02:04:21;;;;;;;0.30;0.10;;;22.40;59.00;;;;;;6257611;28;20298;-55
2022/10/25 02:07:24;;;;;;;;;;;22.80;59.30;;;;;;6259038;28;20044;-56
2022/10/25 02:10:34;;;;;;;0.40;0.22;;;22.30;59.30;;;;;;6255056;28;20288;-56
2022/10/25 02:13:44;;;;;;;0.57;0.20;;;22.50;59.10;;;;;;6259822;28;20175;-56
2022/10/25 02:16:49;;;;;;;0.20;0.10;;;22.80;59.30;;;;;;6259409;28;20066;-54
2022/10/25 02:19:56;;;;;;;0.50;0.20;;;22.80;59.40;;;;;;6259726;28;20044;-56
2022/10/25 02:23:00;;;;;;;0.60;0.13;;;22.50;59.30;;;;;;6258977;28;20090;-53
2022/10/25 02:26:04;;;;;;;0.52;0.20;;;22.40;59.30;;;;;;6258955;28;20819;-58
2022/10/25 02:29:06;;;;;;;0.52;0.10;;;22.40;59.30;;;;;;6256866;28;20086;-55
2022/10/25 02:32:08;;;;;;;0.47;0.20;;;22.90;59.60;;;;;;6258893;28;20448;-57
2022/10/25 02:35:13;;;;;;;0.25;0.17;;;22.60;59.60;;;;;;6255544;28;20048;-56
2022/10/25 02:38:15;;;;;;;0.63;0.20;;;22.90;59.50;;;;;;6254257;28;20040;-55
2022/10/25 02:41:17;;;;;;;;;;;22.80;59.80;;;;;;6255588;28;20044;-54
2022/10/25 02:44:19;;;;;;;0.30;0.30;;;22.60;59.20;;;;;;6252535;28;19929;-58
2022/10/25 02:47:20;;;;;;;;;;;22.80;59.90;;;;;;6264394;28;20130;-58
2022/10/25 02:50:22;;;;;;;0.17;0.10;;;22.40;59.90;;;;;;6263932;28;20091;-57
2022/10/25 02:53:23;;;;;;;0.30;0.20;;;22.60;59.80;;;;;;6256102;28;20044;-58
2022/10/25 02:56:25;;;;;;;;;;;22.40;59.80;;;;;;6258785;28;20996;-55
2022/10/25 02:59:26;;;;;;;0.35;0.10;;;22.50;60.10;;;;;;6257572;28;20034;-55
2022/10/25 03:02:27;;;;;;;0.20;0.10;;;22.50;59.80;;;;;;6257937;28;20439;-58
2022/10/25 03:05:29;;;;;;;;;;;22.20;59.70;;;;;;6258973;28;20077;-52
2022/10/25 03:08:31;;;;;;;0.90;0.40;;;22.50;60.10;;;;;;6258116;28;19923;-56
2022/10/25 03:11:33;;;;;;;0.10;0.10;;;22.70;60.10;;;;;;6256973;28;20178;-58
2022/10/25 03:14:34;;;;;;;0.35;0.13;;;22.60;60.10;;;;;;6256408;28;20050;-55
2022/10/25 03:17:35;;;;;;;;;;;22.30;60.00;;;;;;6254088;28;20641;-58
2022/10/25 03:20:38;;;;;;;0.20;0.10;;;22.90;60.60;;;;;;6262077;28;20705;-59
2022/10/25 03:23:39;;;;;;;0.30;0.17;;;22.60;60.10;;;;;;6263387;28;20036;-59
2022/10/25 03:26:40;;;;;;;;;;;22.60;60.30;;;;;;6266578;28;20037;-58
2022/10/25 03:29:45;;;;;;;0.08;0.00;;;22.40;60.50;;;;;;6260291;28;20545;-55
2022/10/25 03:32:46;;;;;;;0.40;0.20;;;22.60;60.20;;;;;;6255480;28;20449;-57
2022/10/25 03:35:49;;;;;;;;;;;22.90;60.60;;;;;;6257387;28;20145;-55
2022/10/25 03:38:51;;;;;;;0.20;0.10;;;22.70;60.60;;;;;;6258025;28;20066;-57
2022/10/25 03:41:52;;;;;;;;;;;22.70;60.60;;;;;;6261738;28;20048;-58
2022/10/25 03:44:53;;;;;;;0.43;0.20;;;22.80;60.80;;;;;;6264534;28;20713;-55
2022/10/25 03:47:55;;;;;;;;;;;22.70;60.70;;;;;;6258435;28;20438;-56
2022/10/25 03:50:57;;;;;;;0.38;0.10;;;22.20;60.70;;;;;;6255574;28;19967;-56
2022/10/25 03:53:58;;;;;;;0.20;0.10;;;22.30;60.60;;;;;;6257801;28;20249;-54
2022/10/25 03:56:59;;;;;;;;;;;22.50;60.80;;;;;;6253396;28;20067;-56
2022/10/25 04:00:01;;;;;;;0.52;0.20;;;22.30;60.90;;;;;;6255604;28;19965;-56
2022/10/25 04:03:12;;;;;;;;;;;22.70;60.90;;;;;;6257519;28;20053;-56
2022/10/25 04:06:14;;;;;;;0.28;0.25;;;22.70;61.30;;;;;;6257136;28;20183;-56
2022/10/25 04:09:16;;;;;;;0.35;0.20;;;22.60;61.00;;;;;;6257462;28;20144;-56
2022/10/25 04:12:17;;;;;;;0.20;0.20;;;22.70;61.20;;;;;;6264429;28;21278;-58
2022/10/25 04:15:19;;;;;;;0.25;0.20;;;22.60;61.20;;;;;;6262986;28;20452;-57
2022/10/25 04:18:20;;;;;;;;;;;22.20;60.90;;;;;;6258829;28;20323;-58
2022/10/25 04:21:22;;;;;;;0.50;0.10;;;22.40;61.40;;;;;;6258919;28;19928;-56
2022/10/25 04:24:24;;;;;;;0.45;0.20;;;22.80;61.40;;;;;;6259716;28;20048;-56
2022/10/25 04:27:25;;;;;;;;;;;22.60;61.40;;;;;;6256677;28;20368;-57
2022/10/25 04:30:28;;;;;;;0.30;0.20;;;22.40;61.60;;;;;;6251131;28;19984;-56
2022/10/25 04:33:29;;;;;;;0.30;0.20;;;22.50;61.30;;;;;;6247227;28;20036;-55
2022/10/25 04:36:31;;;;;;;;;;;22.50;61.60;;;;;;6248472;28;20646;-54
2022/10/25 04:39:32;;;;;;;0.30;0.10;;;22.20;61.60;;;;;;6249023;28;20266;-55
2022/10/25 04:42:34;;;;;;;;;;;22.60;61.70;;;;;;6251440;28;20044;-55
2022/10/25 04:45:35;;;;;;;;;;;22.90;61.90;;;;;;6253419;28;19960;-59
2022/10/25 04:48:37;;;;;;;0.40;0.25;;;22.80;61.60;;;;;;6255026;28;20175;-57
2022/10/25 04:51:39;;;;;;;0.20;0.13;;;22.50;61.20;;;;;;6250178;28;20037;-55
2022/10/25 04:54:41;;;;;;;0.68;0.20;;;22.60;61.70;;;;;;6252386;28;20900;-58
2022/10/25 04:57:42;;;;;;;;;;;22.60;61.70;;;;;;6253690;28;20135;-59
2022/10/25 05:00:46;;;;;;;0.15;0.10;;;22.10;61.80;;;;;;6256951;28;19928;-58
2022/10/25 05:03:48;;;;;;;0.28;0.20;;;22.60;62.00;;;;;;6255836;28;20058;-58
2022/10/25 05:06:50;;;;;;;0.20;0.10;;;22.60;61.70;;;;;;6252038;28;20040;-58
2022/10/25 05:09:52;;;;;;;0.10;0.10;;;22.40;61.70;;;;;;6257696;28;20046;-58
2022/10/25 05:12:56;;;;;;;;;;;22.70;61.60;;;;;;6255920;28;20226;-58
2022/10/25 05:15:58;;;;;;;0.30;0.20;;;22.10;61.70;;;;;;6258467;28;20857;-58
2022/10/25 05:19:00;;;;;;;;;;;22.70;62.00;;;;;;6254465;28;20103;-57
2022/10/25 05:22:02;;;;;;;0.20;0.20;;;22.10;61.70;;;;;;6252842;28;20783;-58
2022/10/25 05:25:04;;;;;;;0.20;0.20;;;22.60;61.70;;;;;;6255885;28;20043;-58
2022/10/25 05:28:05;;;;;;;0.40;0.20;;;22.90;61.90;;;;;;6249234;28;20043;-58
2022/10/25 05:31:07;;;;;;;;;;;22.50;61.80;;;;;;6254846;28;20930;-58
2022/10/25 05:34:10;;;;;;;0.40;0.20;;;22.40;61.90;;;;;;6251777;28;20140;-59
2022/10/25 05:37:12;;;;;;;0.20;0.10;;;22.30;61.70;;;;;;6248059;28;20062;-56
2022/10/25 05:40:13;;;;;;;0.25;0.10;;;22.40;61.70;;;;;;6244518;28;20050;-58
2022/10/25 05:43:14;;;;;;;;;;;22.50;61.60;;;;;;6253432;28;20811;-57
2022/10/25 05:46:17;;;;;;;0.20;0.20;;;22.20;61.90;;;;;;6249280;28;20062;-58
2022/10/25 05:49:19;;;;;;;0.20;0.20;;;22.30;61.60;;;;;;6246456;28;20079;-58
2022/10/25 05:52:21;;;;;;;0.55;0.20;;;22.40;61.80;;;;;;6250336;28;20963;-58
2022/10/25 05:55:22;;;;;;;0.10;0.10;;;22.40;61.60;;;;;;6243693;28;20040;-59
2022/10/25 05:58:24;;;;;;;;;;;22.20;61.60;;;;;;6239735;28;20044;-58
2022/10/25 06:01:25;;;;;;;2.35;0.10;;;22.10;62.50;;;;;;6238115;28;20740;-57
2022/10/25 06:04:28;;;;;;;0.90;0.40;;;22.50;61.80;;;;;;6229348;28;20154;-58
2022/10/25 06:07:30;;;;;;;0.30;0.20;;;22.50;61.80;;;;;;6225360;28;20131;-58
2022/10/25 06:10:31;;;;;;;0.20;0.13;;;22.30;61.70;;;;;;6218685;28;20089;-57
2022/10/25 06:13:33;;;;;;;;;;;22.40;61.80;;;;;;6217506;28;20045;-58
2022/10/25 06:16:36;;;;;;;;;;;22.70;62.10;;;;;;6202393;28;19928;-58
2022/10/25 06:19:37;;;;;;;1.05;0.10;;;22.30;61.80;;;;;;6208021;28;20874;-58
2022/10/25 06:22:39;;;;;;;;;;;22.50;61.80;;;;;;6181295;22;20793;-59
2022/10/25 06:25:41;;;;;;;0.30;0.20;;;22.30;61.90;;;;;;6173898;28;20152;-57
2022/10/25 06:28:42;;;;;;;;;;;22.60;62.00;;;;;;6159712;28;20040;-58
2022/10/25 06:31:44;;;;;;;0.75;0.10;;;22.60;61.00;;;;;;6149773;28;22065;-56
2022/10/25 06:34:45;;;;;;;0.75;0.20;;;22.40;61.80;;;;;;6154421;28;20044;-57
2022/10/25 06:37:51;;;;;;;0.47;0.20;;;22.40;61.70;;;;;;6154360;28;20226;-58
2022/10/25 06:40:57;;;;;;;0.30;0.20;;;22.70;62.00;;;;;;6155517;28;21787;-58
2022/10/25 06:43:59;;;;;;;0.60;0.10;;;22.30;61.60;;;;;;6136778;28;20041;-58
2022/10/25 06:47:07;;;;;;;1.65;0.15;;;22.30;61.70;;;;;;6101884;28;20048;-56
2022/10/25 06:50:27;;;;;;;0.10;0.10;;;22.80;61.30;;;;;;6127618;28;20161;-58
2022/10/25 06:53:30;;;;;;;0.22;0.13;;;22.80;62.10;;;;;;6108308;28;20045;-58
2022/10/25 06:56:31;;;;;;;1.10;0.25;;;22.60;61.90;;;;;;6067000;28;20052;-58
2022/10/25 06:59:32;;;;;;;;;;;22.70;62.00;;;;;;6108665;28;20060;-56
2022/10/25 07:02:34;;;;;;;0.55;0.20;;;22.90;62.30;;;;;;6080597;28;20148;-55
2022/10/25 07:05:35;;;;;;;0.68;0.10;;;22.80;62.10;;;;;;6059744;28;21656;-57
2022/10/25 07:08:40;;;;;;;1.65;0.20;;;22.90;61.90;;;;;;6038728;28;20179;-57
2022/10/25 07:11:41;;;;;;;0.50;0.28;;;22.80;61.70;;;;;;6034817;28;21064;-57
2022/10/25 07:14:43;;;;;;;2.15;0.45;;;22.50;61.30;;;;;;6043676;28;20063;-55
2022/10/25 07:17:45;;;;;;;0.22;0.10;;;22.80;61.80;;;;;;6056701;28;20716;-56
2022/10/25 07:20:49;;;;;;;0.20;0.20;;;22.90;61.70;;;;;;6045982;28;20048;-57
2022/10/25 07:23:51;;;;;;;0.57;0.30;;;22.50;61.80;;;;;;6049885;28;21333;-58
2022/10/25 07:26:53;;;;;;;0.30;0.20;;;22.60;61.20;;;;;;6034029;28;20060;-57
2022/10/25 07:29:55;;;;;;;0.30;0.20;;;22.70;61.80;;;;;;6021887;28;20033;-55
2022/10/25 07:32:57;;;;;;;1.17;0.47;;;22.80;61.80;;;;;;5963975;28;22409;-57
2022/10/25 07:35:59;;;;;;;1.15;0.20;;;22.70;61.90;;;;;;5971947;28;20181;-57
2022/10/25 07:39:12;;;;;;;1.65;0.30;;;22.40;61.80;;;;;;5997648;28;20941;-56
2022/10/25 07:42:13;;;;;;;1.90;0.38;;;23.10;62.00;;;;;;5987224;28;21474;-54
2022/10/25 07:45:15;;;;;;;;;;;23.00;61.70;;;;;;5995854;28;20052;-54
2022/10/25 07:48:23;;;;;;;0.40;0.20;;;23.10;62.70;;;;;;5985565;28;19935;-58
2022/10/25 07:51:25;;;;;;;;;;;22.60;61.60;;;;;;6006519;28;20067;-57
2022/10/25 07:54:29;;;;;;;0.85;0.30;;;23.10;60.30;;;;;;5970507;28;20697;-59
2022/10/25 07:57:30;;;;;;;1.65;0.30;;;22.70;61.60;;;;;;6006979;28;20049;-58
2022/10/25 08:00:32;;;;;;;;;;;22.80;61.60;;;;;;5982111;28;20173;-53
2022/10/25 08:03:33;;;;;;;;;;;23.20;62.10;;;;;;5894570;28;20047;-54
2022/10/25 08:06:35;;;;;;;0.20;0.20;;;23.00;61.80;;;;;;5889096;28;20691;-50
2022/10/25 08:09:37;;;;;;;0.82;0.30;;;23.10;61.60;;;;;;5894015;28;20315;-54
2022/10/25 08:12:40;;;;;;;0.52;0.22;;;23.10;61.70;;;;;;5845810;28;28812;-52
2022/10/25 08:15:47;;;;;;;0.40;0.17;;;22.90;61.60;;;;;;5884548;28;24389;-54
2022/10/25 08:18:49;;;;;;;1.13;0.25;;;23.10;61.80;;;;;;5908288;28;20132;-51
2022/10/25 08:21:52;;;;;;;0.40;0.28;;;23.10;61.70;;;;;;5937936;28;20056;-54
2022/10/25 08:25:20;;;;;;;0.52;0.20;;;23.10;61.70;;;;;;5893333;28;20646;-55
2022/10/25 08:28:29;;;;;;;0.50;0.13;;;23.00;61.90;;;;;;5900338;28;20052;-55
2022/10/25 08:31:31;;;;;;;0.45;0.10;;;22.70;61.90;;;;;;5875967;28;20049;-55
2022/10/25 08:34:32;;;;;;;0.40;0.20;;;23.00;62.10;;;;;;5910255;28;25028;-55
2022/10/25 08:37:34;;;;;;;0.30;0.10;;;23.00;62.00;;;;;;5881759;28;20048;-54
2022/10/25 08:40:45;;;;;;;1.42;0.20;;;23.10;62.00;;;;;;5920044;28;20052;-56
2022/10/25 08:44:02;;;;;;;0.40;0.22;;;23.20;62.10;;;;;;5904834;28;20041;-56
2022/10/25 08:47:12;;;;;;;0.82;0.17;;;22.90;62.10;;;;;;5919234;28;20056;-55
2022/10/25 08:50:20;;;;;;;1.38;0.20;;;23.10;62.10;;;;;;5929386;28;20053;-53
2022/10/25 08:53:26;;;;;;;0.35;0.20;;;22.90;62.60;;;;;;5933129;28;23763;-56
2022/10/25 08:56:31;;;;;;;0.63;0.30;;;23.20;62.10;;;;;;5921054;28;21615;-56
2022/10/25 08:59:38;;;;;;;1.08;0.20;;;22.90;62.00;;;;;;5941407;28;20174;-54
2022/10/25 09:02:47;;;;;;;0.75;0.28;;;22.70;61.80;;;;;;5941299;28;20044;-54
2022/10/25 09:05:59;;;;;;;0.60;0.40;;;23.10;62.10;;;;;;5920360;28;25023;-55
2022/10/25 09:09:23;;;;;;;0.30;0.20;;;23.20;62.10;;;;;;5913283;28;21738;-54
2022/10/25 09:12:32;;;;;;;0.55;0.30;;;23.20;62.20;;;;;;5931569;28;20838;-54
2022/10/25 09:15:50;;;;;;;0.73;0.20;;;23.10;62.20;;;;;;5936416;28;20044;-55
2022/10/25 09:18:55;;;;;;;0.45;0.15;;;23.00;62.00;;;;;;5894851;28;31104;-53
2022/10/25 09:22:01;;;;;;;0.35;0.30;;;22.90;61.90;;;;;;5875074;28;32109;-55
2022/10/25 09:25:20;;;;;;;0.30;0.20;;;22.70;61.80;;;;;;5869587;28;24996;-56
2022/10/25 09:28:33;;;;;;;0.50;0.20;;;23.20;62.30;;;;;;5888563;28;20053;-56
2022/10/25 09:31:40;;;;;;;0.43;0.30;;;22.60;62.00;;;;;;5895600;28;20048;-56
2022/10/25 09:34:41;;;;;;;0.30;0.22;;;23.00;62.10;;;;;;5898118;28;21420;-53
2022/10/25 09:37:47;;;;;;;0.55;0.10;;;22.90;62.00;;;;;;5913801;28;20056;-56
2022/10/25 09:40:59;;;;;;;0.57;0.20;;;23.20;62.00;;;;;;5917283;28;20049;-56
2022/10/25 09:44:05;;;;;;;0.25;0.10;;;22.80;61.70;;;;;;5901725;28;20134;-52
2022/10/25 09:47:25;;;;;;;0.40;0.40;;;23.20;61.90;;;;;;5899637;28;20051;-52
2022/10/25 09:50:31;;;;;;;0.50;0.30;;;23.20;62.00;;;;;;5875692;28;21659;-56
2022/10/25 09:53:37;;;;;;;1.75;0.20;;;23.30;62.00;;;;;;5942300;28;20040;-53
2022/10/25 09:56:39;;;;;;;1.05;0.30;;;23.20;62.10;;;;;;5916562;28;20622;-59
2022/10/25 09:59:42;;;;;;;0.15;0.15;;;23.10;62.10;;;;;;5885295;28;23056;-58
2022/10/25 10:02:43;;;;;;;0.30;0.30;;;22.80;61.40;;;;;;5893507;28;21600;-58
2022/10/25 10:05:50;;;;;;;0.20;0.20;;;22.70;61.60;;;;;;5893723;28;20044;-59
2022/10/25 10:08:56;;;;;;;1.00;0.20;;;23.10;61.80;;;;;;5938205;28;20098;-55
2022/10/25 10:12:00;;;;;;;0.35;0.20;;;23.00;61.60;;;;;;5954986;28;20049;-60
2022/10/25 10:15:11;;;;;;;0.47;0.20;;;23.60;61.80;;;;;;5899075;28;21943;-59
2022/10/25 10:18:24;;;;;;;0.30;0.17;;;23.30;61.70;;;;;;5919629;28;20106;-56
2022/10/25 10:21:53;;;;;;;0.20;0.10;;;22.70;61.40;;;;;;5917593;28;20037;-57
2022/10/25 10:25:00;;;;;;;0.35;0.35;;;23.00;61.40;;;;;;5890112;28;20174;-55
2022/10/25 10:28:01;;;;;;;0.40;0.30;;;22.90;61.40;;;;;;5994476;28;20659;-55
2022/10/25 10:31:07;;;;;;;0.20;0.20;;;23.30;61.70;;;;;;5988517;28;20056;-57
2022/10/25 10:34:29;;;;;;;0.57;0.20;;;23.30;61.50;;;;;;6036596;28;20041;-56
2022/10/25 10:37:32;;;;;;;0.45;0.30;;;23.30;61.50;;;;;;5965737;28;23886;-53
2022/10/25 10:40:37;;;;;;;0.40;0.20;;;23.10;61.30;;;;;;6051247;28;20080;-54
2022/10/25 10:43:39;;;;;;;0.08;0.08;;;23.10;61.40;;;;;;6062997;28;20048;-52
2022/10/25 10:46:48;;;;;;;1.23;0.30;;;23.50;61.50;;;;;;6048381;28;20869;-56
2022/10/25 10:49:49;;;;;;;0.20;0.20;;;23.60;61.50;;;;;;6092854;28;20051;-52
2022/10/25 10:52:56;;;;;;;0.20;0.20;;;23.50;61.40;;;;;;6096846;28;20056;-55
2022/10/25 10:56:04;;;;;;;0.32;0.20;;;23.40;61.30;;;;;;6079459;28;20037;-52
2022/10/25 10:59:23;;;;;;;0.20;0.13;;;22.80;60.70;;;;;;6079353;28;21216;-54
2022/10/25 11:02:35;;;;;;;0.20;0.20;;;23.30;61.00;;;;;;6120105;28;20052;-55
2022/10/25 11:05:38;;;;;;;0.17;0.15;;;23.00;60.70;;;;;;6129416;28;20047;-55
2022/10/25 11:08:40;;;;;;;0.20;0.20;;;23.00;60.90;;;;;;6123847;28;20049;-55
2022/10/25 11:11:42;;;;;;;0.25;0.15;;;23.20;60.90;;;;;;6091832;28;20096;-55
2022/10/25 11:14:44;;;;;;;0.40;0.10;;;23.50;61.00;;;;;;6122451;28;20048;-55
2022/10/25 11:17:52;;;;;;;0.28;0.20;;;23.20;60.90;;;;;;6076649;28;20074;-53
2022/10/25 11:21:01;;;;;;;0.20;0.20;;;23.40;60.80;;;;;;6014857;28;25766;-52
2022/10/25 11:24:12;;;;;;;0.28;0.20;;;22.90;60.50;;;;;;6068027;28;26129;-55
2022/10/25 11:27:22;;;;;;;0.57;0.20;;;23.60;60.90;;;;;;6068151;28;20602;-53
2022/10/25 11:30:30;;;;;;;0.20;0.20;;;23.50;60.70;;;;;;6087743;28;20934;-53
2022/10/25 11:33:43;;;;;;;0.28;0.20;;;23.30;60.50;;;;;;6035200;28;26193;-55
2022/10/25 11:37:01;;;;;;;0.30;0.17;;;23.50;60.70;;;;;;6047484;28;21274;-56
2022/10/25 11:40:12;;;;;;;1.75;0.30;;;23.00;60.90;;;;;;6077342;28;20045;-57
2022/10/25 11:43:29;;;;;;;1.10;0.32;;;23.20;61.10;;;;;;6067187;28;20049;-57
2022/10/25 11:46:38;;;;;;;0.28;0.20;;;23.20;61.10;;;;;;6073714;28;20052;-57
2022/10/25 11:49:56;;;;;;;0.68;0.30;;;22.90;60.60;;;;;;6034657;28;20049;-55
2022/10/25 11:53:19;;;;;;;0.40;0.30;;;23.00;60.90;;;;;;6031270;28;20041;-56
2022/10/25 11:56:28;;;;;;;0.60;0.30;;;23.40;61.00;;;;;;5954267;28;29931;-58
2022/10/25 11:59:39;;;;;;;0.63;0.20;;;22.90;60.70;;;;;;5954050;28;20143;-56
2022/10/25 12:02:58;;;;;;;1.02;0.17;;;22.90;60.50;;;;;;5918661;28;20045;-57
2022/10/25 12:06:11;;;;;;;0.63;0.28;;;23.20;60.70;;;;;;5901115;28;20049;-56
2022/10/25 12:09:20;;;;;;;0.43;0.20;;;22.80;60.40;;;;;;5920798;28;20146;-56
2022/10/25 12:12:25;;;;;;;1.77;0.30;;;23.00;60.50;;;;;;5923028;28;20041;-57
2022/10/25 12:15:36;;;;;;;0.55;0.25;;;23.30;60.40;;;;;;5933745;28;22067;-57
2022/10/25 12:18:42;;;;;;;1.07;0.27;;;23.50;60.50;;;;;;5951452;28;20052;-57
2022/10/25 12:21:49;;;;;;;0.70;0.30;;;23.30;60.30;;;;;;5940074;28;21847;-52
2022/10/25 12:24:56;;;;;;;0.80;0.30;;;23.40;60.40;;;;;;5965787;28;22142;-56
2022/10/25 12:28:05;;;;;;;0.63;0.30;;;23.30;60.40;;;;;;5980329;28;22767;-57
2022/10/25 12:31:13;;;;;;;0.88;0.40;;;23.20;60.10;;;;;;5939351;28;30066;-54
2022/10/25 12:34:18;;;;;;;0.52;0.35;;;23.00;59.80;;;;;;6010391;28;21240;-54
2022/10/25 12:37:29;;;;;;;0.70;0.47;;;23.20;60.00;;;;;;5998069;28;20045;-54
2022/10/25 12:40:38;;;;;;;1.20;0.47;;;23.00;60.00;;;;;;5987174;28;20171;-56
2022/10/25 12:43:51;;;;;;;1.10;0.40;;;23.20;60.00;;;;;;6005331;28;20047;-56
2022/10/25 12:47:06;;;;;;;1.52;0.40;;;23.00;60.20;;;;;;5973977;28;20045;-55
2022/10/25 12:50:35;;;;;;;1.35;0.65;;;23.30;60.10;;;;;;5976706;28;25500;-54
2022/10/25 12:53:57;;;;;;;3.20;0.43;;;23.10;59.90;;;;;;5976245;28;20044;-55
2022/10/25 12:57:13;;;;;;;0.68;0.30;;;23.20;59.90;;;;;;5988771;28;21414;-55
2022/10/25 13:00:17;;;;;;;1.10;0.40;;;23.10;60.00;;;;;;5980685;28;20291;-57
2022/10/25 13:03:38;;;;;;;0.82;0.47;;;23.10;60.10;;;;;;5980286;28;20570;-56
2022/10/25 13:06:43;;;;;;;0.90;0.60;;;22.70;60.00;;;;;;5970018;28;20226;-56
2022/10/25 13:09:46;;;;;;;0.88;0.47;;;23.20;60.30;;;;;;5971953;28;20037;-56
2022/10/25 13:13:00;;;;;;;2.17;0.55;;;23.50;60.40;;;;;;5974679;28;20041;-56
2022/10/25 13:16:03;;;;;;;1.35;0.40;;;23.50;60.70;;;;;;5936057;28;20621;-55
2022/10/25 13:19:23;;;;;;;1.15;0.55;;;23.30;60.60;;;;;;5946835;28;21652;-54
2022/10/25 13:22:45;;;;;;;1.75;0.70;;;23.00;60.50;;;;;;5854812;28;20347;-49
2022/10/25 13:26:07;;;;;;;1.75;0.90;;;22.80;60.60;;;;;;5901074;28;20041;-55
2022/10/25 13:29:37;;;;;;;1.33;0.50;;;23.60;60.70;;;;;;5937861;23;21233;-53
2022/10/25 13:32:40;;;;;;;1.65;0.70;;;23.40;60.70;;;;;;5881331;28;20069;-56
2022/10/25 13:35:59;;;;;;;1.00;0.57;;;23.40;60.80;;;;;;5884002;28;21561;-55
2022/10/25 13:39:05;;;;;;;1.50;0.55;;;23.30;60.60;;;;;;5863849;28;20068;-56
2022/10/25 13:42:24;;;;;;;1.13;0.50;;;22.70;60.40;;;;;;5882533;28;28329;-55
2022/10/25 13:45:33;;;;;;;1.63;0.80;;;22.60;60.30;;;;;;5896287;28;20223;-58
2022/10/25 13:48:36;;;;;;;2.03;0.68;;;23.20;60.40;;;;;;5858917;28;29974;-56
2022/10/25 13:51:40;;;;;;;0.68;0.40;;;23.20;60.40;;;;;;5874858;28;30271;-53
2022/10/25 13:54:47;;;;;;;1.05;0.65;;;23.00;60.20;;;;;;5864073;28;30703;-55
2022/10/25 13:57:52;;;;;;;0.52;0.40;;;23.30;60.20;;;;;;5886636;28;31684;-56
2022/10/25 14:00:54;;;;;;;0.40;0.30;;;22.90;59.90;;;;;;5863682;28;20144;-57
2022/10/25 14:04:19;;;;;;;1.00;0.60;;;23.30;60.10;;;;;;5870369;28;20194;-57
2022/10/25 14:07:44;;;;;;;0.70;0.50;;;23.50;59.90;;;;;;5859375;28;31381;-56
2022/10/25 14:10:47;;;;;;;0.77;0.43;;;23.10;59.70;;;;;;5863725;28;20127;-56
2022/10/25 14:13:54;;;;;;;0.57;0.40;;;23.30;59.70;;;;;;5887222;28;20041;-57
2022/10/25 14:17:13;;;;;;;0.70;0.40;;;23.20;59.40;;;;;;5878056;28;20065;-56
2022/10/25 14:20:23;;;;;;;0.77;0.52;;;23.60;59.70;;;;;;5878125;28;28920;-56
2022/10/25 14:23:29;;;;;;;0.40;0.30;;;23.00;59.30;;;;;;5908661;28;20123;-57
2022/10/25 14:26:31;;;;;;;0.85;0.57;;;23.20;59.30;;;;;;5879921;28;20764;-56
2022/10/25 14:29:32;;;;;;;0.63;0.38;;;23.00;58.60;;;;;;5935217;28;20143;-58
2022/10/25 14:32:34;;;;;;;1.00;0.50;;;23.40;59.60;;;;;;5925029;28;20044;-58
2022/10/25 14:35:45;;;;;;;1.10;0.60;;;23.70;59.70;;;;;;5927533;28;20040;-57
2022/10/25 14:38:51;;;;;;;0.80;0.50;;;23.50;59.50;;;;;;5894571;28;22578;-58
2022/10/25 14:41:54;;;;;;;0.47;0.30;;;23.60;59.60;;;;;;5933522;28;20045;-55
2022/10/25 14:44:56;;;;;;;0.80;0.52;;;23.10;59.20;;;;;;5911798;28;20047;-56
2022/10/25 14:47:58;;;;;;;0.50;0.40;;;23.70;59.60;;;;;;5911207;28;27265;-58
2022/10/25 14:51:09;;;;;;;1.05;0.50;;;23.60;59.50;;;;;;5875622;28;29613;-57
2022/10/25 14:54:22;;;;;;;;;;;23.70;59.60;;;;;;5902615;28;21391;-57
2022/10/25 14:57:26;;;;;;;0.60;0.40;;;23.80;59.70;;;;;;5928822;28;20922;-55
2022/10/25 15:00:27;;;;;;;0.55;0.40;;;23.10;59.30;;;;;;5914504;28;20373;-56
2022/10/25 15:03:30;;;;;;;0.90;0.30;;;23.50;59.60;;;;;;5929147;28;29847;-58
2022/10/25 15:06:32;;;;;;;0.93;0.60;;;23.60;59.60;;;;;;5935312;28;20040;-57
2022/10/25 15:09:34;;;;;;;0.77;0.50;;;23.60;59.70;;;;;;5928272;28;20053;-57
2022/10/25 15:12:51;;;;;;;0.40;0.32;;;23.60;59.80;;;;;;5941268;28;20400;-56
2022/10/25 15:15:52;;;;;;;0.30;0.25;;;23.50;59.50;;;;;;5913759;28;20045;-56
2022/10/25 15:19:17;;;;;;;1.20;0.43;;;23.60;59.60;;;;;;5945540;28;20118;-55
2022/10/25 15:22:26;;;;;;;0.40;0.40;;;23.70;59.50;;;;;;5894319;28;30543;-55
2022/10/25 15:25:30;;;;;;;0.60;0.40;;;23.60;59.50;;;;;;5971418;28;22543;-54
2022/10/25 15:28:46;;;;;;;0.68;0.40;;;23.40;59.60;;;;;;5933133;28;20048;-51
2022/10/25 15:31:47;;;;;;;0.57;0.35;;;23.30;59.40;;;;;;5925796;28;20041;-55
2022/10/25 15:34:49;;;;;;;;;;;23.70;59.60;;;;;;5962983;28;20836;-52
2022/10/25 15:37:51;;;;;;;1.40;0.52;;;24.10;60.00;;;;;;5941818;28;19928;-53
2022/10/25 15:40:53;;;;;;;0.70;0.50;;;23.60;59.50;;;;;;5942550;28;29467;-56
2022/10/25 15:43:54;;;;;;;0.68;0.45;;;23.30;59.30;;;;;;5977313;28;22573;-55
2022/10/25 15:46:56;;;;;;;0.80;0.40;;;23.30;59.50;;;;;;5973953;28;20849;-54
2022/10/25 15:49:59;;;;;;;0.82;0.40;;;23.60;59.30;;;;;;5986971;28;20045;-56
2022/10/25 15:53:01;;;;;;;0.75;0.52;;;23.80;59.40;;;;;;5984092;28;27236;-57
2022/10/25 15:56:03;;;;;;;0.40;0.35;;;23.50;59.20;;;;;;5945284;28;29189;-58
2022/10/25 15:59:05;;;;;;;0.80;0.40;;;23.70;59.30;;;;;;5958720;28;29891;-57
2022/10/25 16:02:16;;;;;;;0.90;0.40;;;23.70;59.40;;;;;;5948655;28;27268;-56
2022/10/25 16:05:21;;;;;;;0.67;0.30;;;23.40;58.90;;;;;;5979720;28;20069;-58
2022/10/25 16:08:23;;;;;;;1.77;0.47;;;23.80;59.10;;;;;;5945586;28;20312;-58
2022/10/25 16:11:24;;;;;;;0.75;0.40;;;23.30;59.00;;;;;;6013761;28;20472;-58
2022/10/25 16:14:27;;;;;;;0.70;0.43;;;23.60;59.10;;;;;;6063583;28;23080;-57
2022/10/25 16:17:29;;;;;;;1.70;0.40;;;23.40;59.00;;;;;;6070120;28;20049;-58
2022/10/25 16:20:31;;;;;;;0.90;0.40;;;23.60;58.90;;;;;;6091706;28;20056;-57